createdAt,value
2023-01-29T00:00:11.392Z,83.78
2023-01-29T00:05:27.069Z,83.11
2023-01-29T00:10:29.503Z,81.27
2023-01-29T00:15:31.027Z,75.87
2023-01-29T00:20:32.529Z,77.41
2023-01-29T00:25:34.005Z,76.00
2023-01-29T00:30:36.964Z,74.38
2023-01-29T00:35:40.406Z,76.35
2023-01-29T00:40:41.858Z,75.90
2023-01-29T00:45:43.422Z,77.14
2023-01-29T00:50:44.937Z,77.63
2023-01-29T00:55:46.355Z,78.27
2023-01-29T01:00:48.779Z,74.54
2023-01-29T01:05:50.343Z,74.46
2023-01-29T01:10:59.300Z,77.00
2023-01-29T01:16:00.960Z,75.46
2023-01-29T01:21:02.466Z,78.18
2023-01-29T01:26:08.834Z,80.76
2023-01-29T01:31:11.872Z,81.21
2023-01-29T01:36:13.531Z,81.66
2023-01-29T01:41:18.545Z,83.08
2023-01-29T01:46:20.434Z,82.73
2023-01-29T01:51:25.326Z,83.17
2023-01-29T01:56:31.929Z,84.29
2023-01-29T02:01:33.539Z,84.90
2023-01-29T02:06:36.960Z,83.81
2023-01-29T02:11:38.591Z,85.00
2023-01-29T02:16:39.989Z,84.15
2023-01-29T02:21:44.226Z,85.85
2023-01-29T02:27:34.120Z,84.06
2023-01-29T02:32:40.509Z,84.24
2023-01-29T02:38:11.117Z,85.69
2023-01-29T02:43:15.616Z,85.00
2023-01-29T02:48:23.755Z,85.39
2023-01-29T02:53:32.384Z,86.47
2023-01-29T02:58:45.806Z,86.45
2023-01-29T03:03:52.954Z,85.00
2023-01-29T03:08:59.571Z,85.59
2023-01-29T03:14:15.728Z,86.04
2023-01-29T03:19:46.752Z,86.45
2023-01-29T03:24:52.107Z,87.01
2023-01-29T03:29:56.526Z,85.47
2023-01-29T03:35:03.305Z,85.84
2023-01-29T03:40:07.029Z,85.42
2023-01-29T03:45:34.670Z,85.54
2023-01-29T03:50:56.757Z,86.39
2023-01-29T03:56:02.821Z,84.82
2023-01-29T04:01:23.193Z,84.20
2023-01-29T04:06:29.838Z,85.41
2023-01-29T04:11:34.464Z,84.99
2023-01-29T04:16:41.027Z,84.95
2023-01-29T04:21:43.525Z,85.63
2023-01-29T04:26:47.644Z,86.61
2023-01-29T04:31:57.955Z,86.05
2023-01-29T04:37:11.470Z,86.21
2023-01-29T04:42:24.884Z,85.77
2023-01-29T04:47:41.397Z,85.43
2023-01-29T04:53:07.207Z,84.50
2023-01-29T04:58:18.926Z,82.53
2023-01-29T05:03:24.583Z,81.37
2023-01-29T05:08:29.389Z,83.92
2023-01-29T05:13:33.135Z,84.20
2023-01-29T05:18:35.388Z,83.22
2023-01-29T05:23:36.952Z,82.94
2023-01-29T05:28:38.566Z,83.52
2023-01-29T05:33:40.015Z,82.94
2023-01-29T05:38:41.486Z,83.64
2023-01-29T05:43:42.918Z,84.06
2023-01-29T05:48:44.477Z,83.38
2023-01-29T05:53:45.938Z,83.40
2023-01-29T05:58:47.423Z,82.97
2023-01-29T06:03:49.043Z,81.69
2023-01-29T06:08:50.644Z,82.76
2023-01-29T06:13:52.172Z,82.94
2023-01-29T06:18:53.901Z,81.92
2023-01-29T06:23:55.503Z,82.06
2023-01-29T06:28:56.976Z,82.24
2023-01-29T06:33:58.658Z,82.43
2023-01-29T06:39:00.232Z,82.83
2023-01-29T06:44:01.842Z,82.04
2023-01-29T06:49:03.566Z,82.50
2023-01-29T06:54:05.386Z,81.25
2023-01-29T06:59:06.894Z,80.45
2023-01-29T07:04:08.531Z,80.70
2023-01-29T07:09:14.813Z,79.30
2023-01-29T07:14:16.364Z,79.89
2023-01-29T07:19:17.820Z,79.75
2023-01-29T07:24:19.481Z,78.76
2023-01-29T07:29:21.089Z,78.67
2023-01-29T07:34:22.499Z,78.27
2023-01-29T07:39:24.030Z,79.27
2023-01-29T07:44:25.450Z,78.40
2023-01-29T07:49:26.939Z,78.85
2023-01-29T07:54:28.488Z,79.19
2023-01-29T07:59:29.995Z,78.29
2023-01-29T08:04:31.452Z,78.94
2023-01-29T08:09:32.952Z,78.56
2023-01-29T08:14:34.505Z,77.66
2023-01-29T08:19:35.945Z,77.65
2023-01-29T08:24:53.205Z,77.64
2023-01-29T08:29:58.809Z,78.66
2023-01-29T08:35:00.264Z,78.06
2023-01-29T08:40:01.735Z,76.81
2023-01-29T08:45:03.582Z,77.35
2023-01-29T08:50:05.532Z,76.52
2023-01-29T08:55:07.493Z,76.56
2023-01-29T09:00:11.311Z,76.96
2023-01-29T09:05:12.895Z,75.99
2023-01-29T09:10:15.575Z,77.03
2023-01-29T09:15:17.295Z,76.69
2023-01-29T09:20:19.498Z,76.23
2023-01-29T09:25:21.006Z,75.74
2023-01-29T09:30:22.687Z,75.27
2023-01-29T09:35:24.590Z,74.69
2023-01-29T09:40:48.792Z,74.47
2023-01-29T09:45:56.589Z,74.94
2023-01-29T09:51:03.075Z,74.19
2023-01-29T09:56:10.960Z,74.26
2023-01-29T10:01:24.095Z,75.47
2023-01-29T10:07:01.592Z,75.09
2023-01-29T10:12:23.894Z,74.84
2023-01-29T10:17:34.299Z,74.52
2023-01-29T10:22:44.004Z,74.88
2023-01-29T10:27:50.614Z,75.83
2023-01-29T10:32:54.002Z,73.89
2023-01-29T10:38:02.504Z,74.02
2023-01-29T10:43:13.596Z,74.03
2023-01-29T10:48:44.682Z,73.60
2023-01-29T10:53:57.379Z,72.48
2023-01-29T10:59:03.999Z,72.60
2023-01-29T11:04:12.025Z,74.46
2023-01-29T11:09:25.274Z,73.87
2023-01-29T11:14:51.133Z,73.55
2023-01-29T11:19:54.245Z,74.08
2023-01-29T11:25:17.858Z,75.20
2023-01-29T11:30:25.418Z,74.61
2023-01-29T11:35:27.069Z,73.99
2023-01-29T11:40:37.131Z,73.98
2023-01-29T11:45:39.833Z,74.66
2023-01-29T11:50:41.378Z,73.75
2023-01-29T11:55:50.759Z,73.86
2023-01-29T12:00:53.950Z,74.75
2023-01-29T12:06:01.082Z,75.79
2023-01-29T12:11:12.414Z,75.38
2023-01-29T12:16:36.418Z,73.54
2023-01-29T12:21:43.889Z,74.59
2023-01-29T12:26:55.119Z,73.42
2023-01-29T12:32:08.113Z,73.97
2023-01-29T12:37:25.659Z,74.03
2023-01-29T12:42:27.933Z,74.57
2023-01-29T12:47:41.954Z,75.33
2023-01-29T12:52:52.858Z,73.72
2023-01-29T12:58:00.116Z,75.29
2023-01-29T13:03:54.464Z,74.30
2023-01-29T13:09:01.807Z,74.55
2023-01-29T13:14:12.290Z,74.97
2023-01-29T13:19:19.057Z,75.64
2023-01-29T13:24:24.598Z,74.99
2023-01-29T13:29:28.978Z,75.92
2023-01-29T13:34:37.023Z,74.64
2023-01-29T13:39:46.047Z,75.37
2023-01-29T13:44:50.435Z,76.10
2023-01-29T13:49:57.643Z,75.74
2023-01-29T13:55:04.574Z,76.78
2023-01-29T14:00:26.612Z,75.29
2023-01-29T14:05:30.916Z,76.87
2023-01-29T14:10:34.573Z,75.34
2023-01-29T14:15:37.421Z,74.65
2023-01-29T14:20:58.988Z,74.89
2023-01-29T14:26:02.937Z,74.40
2023-01-29T14:31:05.809Z,73.96
2023-01-29T14:36:12.942Z,75.51
2023-01-29T14:41:29.561Z,77.54
2023-01-29T14:46:52.820Z,79.79
2023-01-29T14:51:56.784Z,81.25
2023-01-29T14:57:02.402Z,82.36
2023-01-29T15:02:24.007Z,80.78
2023-01-29T15:07:32.183Z,82.99
2023-01-29T15:12:50.912Z,83.33
2023-01-29T15:18:13.093Z,83.23
2023-01-29T15:23:28.983Z,84.86
2023-01-29T15:28:32.486Z,84.64
2023-01-29T15:33:36.474Z,85.98
2023-01-29T15:38:38.057Z,87.00
2023-01-29T15:43:44.492Z,86.50
2023-01-29T15:48:48.445Z,85.94
2023-01-29T15:54:04.178Z,87.39
2023-01-29T15:59:09.672Z,86.95
2023-01-29T16:04:15.406Z,87.33
2023-01-29T16:09:21.060Z,87.57
2023-01-29T16:14:24.867Z,88.75
2023-01-29T16:19:28.942Z,88.67
2023-01-29T16:24:32.420Z,87.42
2023-01-29T16:29:35.614Z,88.43
2023-01-29T16:34:43.124Z,87.95
2023-01-29T16:39:47.430Z,87.07
2023-01-29T16:44:59.966Z,86.86
2023-01-29T16:50:20.020Z,88.53
2023-01-29T16:55:22.932Z,88.55
2023-01-29T17:00:27.610Z,88.06
2023-01-29T17:05:31.690Z,88.13
2023-01-29T17:10:34.229Z,88.16
2023-01-29T17:15:45.506Z,87.57
2023-01-29T17:20:47.556Z,89.50
2023-01-29T17:25:49.518Z,89.48
2023-01-29T17:31:05.244Z,89.02
2023-01-29T17:36:10.612Z,87.66
2023-01-29T17:41:33.150Z,89.52
2023-01-29T17:46:34.615Z,89.11
2023-01-29T17:51:36.104Z,89.19
2023-01-29T17:56:37.589Z,89.85
2023-01-29T18:01:42.421Z,88.34
2023-01-29T18:06:47.037Z,89.84
2023-01-29T18:11:49.946Z,89.29
2023-01-29T18:16:51.447Z,89.77
2023-01-29T18:21:53.532Z,90.18
2023-01-29T18:26:55.051Z,89.81
2023-01-29T18:31:56.948Z,89.21
2023-01-29T18:36:58.805Z,89.67
2023-01-29T18:42:00.655Z,90.75
2023-01-29T18:47:02.346Z,91.61
2023-01-29T18:52:04.046Z,88.53
2023-01-29T18:57:14.107Z,88.53
2023-01-29T19:02:27.273Z,88.07
2023-01-29T19:07:28.768Z,87.27
2023-01-29T19:12:30.367Z,88.06
2023-01-29T19:17:31.805Z,90.40
2023-01-29T19:22:33.221Z,90.25
2023-01-29T19:27:34.725Z,90.17
2023-01-29T19:32:36.335Z,89.39
2023-01-29T19:37:37.742Z,90.85
2023-01-29T19:42:39.166Z,89.95
2023-01-29T19:47:42.228Z,90.00
2023-01-29T19:52:51.959Z,88.38
2023-01-29T19:57:54.715Z,89.75
2023-01-29T20:02:57.207Z,89.21
2023-01-29T20:07:58.634Z,86.33
2023-01-29T20:13:00.143Z,86.66
2023-01-29T20:18:01.614Z,86.39
2023-01-29T20:23:03.090Z,87.75
2023-01-29T20:28:06.633Z,88.66
2023-01-29T20:33:08.644Z,89.21
2023-01-29T20:38:10.161Z,88.79
2023-01-29T20:43:11.591Z,88.22
2023-01-29T20:48:13.296Z,87.30
2023-01-29T20:53:15.198Z,88.25
2023-01-29T20:58:16.758Z,88.48
2023-01-29T21:03:18.171Z,88.05
2023-01-29T21:08:20.261Z,89.94
2023-01-29T21:13:21.873Z,90.87
2023-01-29T21:18:23.743Z,88.93
2023-01-29T21:23:25.337Z,89.08
2023-01-29T21:28:26.977Z,91.20
2023-01-29T21:33:28.681Z,92.56
2023-01-29T21:38:30.788Z,92.45
2023-01-29T21:43:32.342Z,91.38
2023-01-29T21:48:33.860Z,92.82
2023-01-29T21:53:35.563Z,92.43
2023-01-29T21:58:36.958Z,91.27
2023-01-29T22:03:38.646Z,90.10
2023-01-29T22:08:40.243Z,88.84
2023-01-29T22:13:41.828Z,89.55
2023-01-29T22:18:43.255Z,87.35
2023-01-29T22:23:48.578Z,89.34
2023-01-29T22:28:50.006Z,87.22
2023-01-29T22:33:51.451Z,88.63
2023-01-29T22:38:52.943Z,87.99
2023-01-29T22:43:54.407Z,90.36
2023-01-29T22:48:55.847Z,88.82
2023-01-29T22:53:57.720Z,89.77
2023-01-29T22:59:00.337Z,88.25
2023-01-29T23:04:01.817Z,88.75
2023-01-29T23:09:03.399Z,88.56
2023-01-29T23:14:04.849Z,88.73
2023-01-29T23:19:06.440Z,89.29
2023-01-29T23:24:08.359Z,89.33
2023-01-29T23:29:10.412Z,90.32
2023-01-29T23:34:11.957Z,90.04
2023-01-29T23:39:13.372Z,89.83
2023-01-29T23:44:14.822Z,90.23
2023-01-29T23:49:16.315Z,90.40
2023-01-29T23:54:17.972Z,92.08
2023-01-29T23:59:19.581Z,92.78
